Decoded Metar for KVDF (TAMPA/VANDENBURG in FL, USA) (IATA:VDF) | Meteo·Mobile Aviation Weather
aviador You're here:

KVDF Decoded Metar

TAMPA/VANDENBURG in FL, USA
Report Time2019-02-18 09:55:00
UTC Time2019-02-18 10:11:59
Flight Rules vfr VFR
Wind190° at 04 kt
W.Decomp.*RWY 18: 3.9 kt HW 1.0 kt RCW
RWY 23: 3.2 kt HW 2.4 kt LCW
W.Rank190° ranks 24
Current wind is below 190° avg. (6.3)
Visibility9999 m
Phenomena:N/A
Clouds:N/A
Expected CloudBase > 400 ft AGL from Temp-Dew spread
CeilingNone
Temp21°C (ISA +6)
Dew Point20°C (94% RH)
QNH1017 hPa
Density Alt902 ft
Elevation23 ft
Report Wrong Elevation
Raw Report
METAR KVDF 180955Z AUTO 19004KT 10SM CLR 21/20 A3002 RMK AO2=

Extra information for KVDF:More info

Metar Taf Metar & Taf Last 4 Metars F.Rules Stats Wind Profile Meteogram Temp Stats Airport Information Weather charts Add Link Nearby VenuesMetar ALERT Operation Metar Decoded Social comments

AIRNAV info for KVDF